Terminal Aerodrome Forecast
Issued by NWS

Home | Current Version | Previous Version | Text Only | Print | Product List | Glossary On
Versions: 1 2 3 4 5 6 7 8 9 10 11 12 13 14 15 16 17 18 19 20 21 22 23 24 25 26 27 28 29 30 31 32 33 34 35 36
000
FTUS41 KBTV 092321
TAFPBG
TAF
KPBG 092321Z 1000/1024 VRB05KT P6SM VCSH OVC030
      TEMPO 1001/1005 4SM -SN BR BKN020
     FM100500 VRB03KT P6SM VCSH OVC020
     FM101600 05005KT 2SM -SN BR OVC015=

USA.gov is the U.S. government's official web portal to all federal, state and local government web resources and services.